createdAt,value
2023-04-27T00:01:06.502Z,98454.78
2023-04-27T00:03:39.970Z,98448.16
2023-04-27T00:06:12.290Z,98431.66
2023-04-27T00:08:45.230Z,98448.16
2023-04-27T00:11:17.148Z,98439.56
2023-04-27T00:13:49.612Z,98432.94
2023-04-27T00:16:21.611Z,98423.69
2023-04-27T00:18:54.233Z,98436.84
2023-04-27T00:21:27.003Z,98443.41
2023-04-27T00:23:59.421Z,98444.72
2023-04-27T00:26:31.769Z,98446.06
2023-04-27T00:29:05.152Z,98426.91
2023-04-27T00:31:37.134Z,98427.56
2023-04-27T00:34:09.966Z,98437.50
2023-04-27T00:36:41.950Z,98414.34
2023-04-27T00:39:14.668Z,98412.34
2023-04-27T00:41:46.793Z,98428.88
2023-04-27T00:44:26.489Z,98423.63
2023-04-27T00:46:58.949Z,98422.28
2023-04-27T00:49:31.797Z,98423.66
2023-04-27T00:52:04.141Z,98419.66
2023-04-27T00:54:36.589Z,98409.69
2023-04-27T00:57:09.054Z,98415.00
2023-04-27T00:59:41.630Z,98429.47
2023-04-27T01:02:14.086Z,98429.47
2023-04-27T01:04:46.557Z,98424.88
2023-04-27T01:07:18.896Z,98440.06
2023-04-27T01:09:51.521Z,98435.44
2023-04-27T01:12:23.526Z,98426.81
2023-04-27T01:14:56.454Z,98443.97
2023-04-27T01:17:28.399Z,98420.78
2023-04-27T01:20:02.649Z,98447.91
2023-04-27T01:22:34.598Z,98436.66
2023-04-27T01:25:08.332Z,98435.97
2023-04-27T01:27:40.653Z,98447.91
2023-04-27T01:30:13.703Z,98443.94
2023-04-27T01:32:46.158Z,98447.91
2023-04-27T01:35:18.676Z,98428.06
2023-04-27T01:37:51.408Z,98433.31
2023-04-27T01:40:23.637Z,98440.63
2023-04-27T01:42:56.090Z,98423.41
2023-04-27T01:45:28.507Z,98431.44
2023-04-27T01:48:01.271Z,98443.38
2023-04-27T01:50:34.186Z,98443.97
2023-04-27T01:53:06.151Z,98424.16
2023-04-27T01:55:38.879Z,98419.47
2023-04-27T01:58:10.820Z,98416.84
2023-04-27T02:00:45.815Z,98438.66
2023-04-27T02:03:18.200Z,98438.03
2023-04-27T02:05:50.795Z,98427.44
2023-04-27T02:08:24.829Z,98422.13
2023-04-27T02:10:58.017Z,98416.94
2023-04-27T02:13:29.882Z,98434.13
2023-04-27T02:16:04.641Z,98426.19
2023-04-27T02:18:37.034Z,98427.50
2023-04-27T02:21:15.065Z,98438.72
2023-04-27T02:23:47.762Z,98445.31
2023-04-27T02:26:22.489Z,98445.34
2023-04-27T02:28:54.814Z,98430.09
2023-04-27T02:31:27.963Z,98440.69
2023-04-27T02:33:59.883Z,98430.78
2023-04-27T02:36:32.763Z,98426.13
2023-04-27T02:39:05.640Z,98419.53
2023-04-27T02:41:37.664Z,98429.44
2023-04-27T02:44:11.057Z,98438.72
2023-04-27T02:46:43.001Z,98431.50
2023-04-27T02:49:17.147Z,98424.28
2023-04-27T02:51:49.052Z,98430.84
2023-04-27T02:54:22.565Z,98442.03
2023-04-27T02:56:55.036Z,98442.72
2023-04-27T02:59:48.698Z,98440.06
2023-04-27T03:02:21.215Z,98437.41
2023-04-27T03:04:54.916Z,98443.41
2023-04-27T03:07:27.672Z,98444.00
2023-04-27T03:10:18.417Z,98444.69
2023-04-27T03:12:51.376Z,98430.00
2023-04-27T03:15:23.243Z,98448.47
2023-04-27T03:17:56.394Z,98461.06
2023-04-27T03:20:28.778Z,98449.84
2023-04-27T03:23:01.756Z,98441.94
2023-04-27T03:25:34.528Z,98456.53
2023-04-27T03:28:06.670Z,98449.97
2023-04-27T03:30:41.621Z,98453.28
2023-04-27T03:33:14.643Z,98447.97
2023-04-27T03:35:56.539Z,98448.56
2023-04-27T03:38:29.062Z,98447.91
2023-04-27T03:41:01.965Z,98437.34
2023-04-27T03:43:34.297Z,98460.47
2023-04-27T03:46:08.973Z,98457.25
2023-04-27T03:48:43.895Z,98457.91
2023-04-27T03:51:16.728Z,98450.69
2023-04-27T03:53:50.988Z,98437.41
2023-04-27T03:56:24.182Z,98433.44
2023-04-27T03:58:56.849Z,98451.25
2023-04-27T04:01:37.846Z,98453.88
2023-04-27T04:04:10.366Z,98441.28
2023-04-27T04:06:42.813Z,98449.84
2023-04-27T04:09:17.130Z,98441.25
2023-04-27T04:11:49.877Z,98432.00
2023-04-27T04:14:22.537Z,98433.94
2023-04-27T04:16:55.694Z,98454.38
2023-04-27T04:19:28.021Z,98441.75
2023-04-27T04:22:00.429Z,98447.34
2023-04-27T04:24:32.353Z,98450.53
2023-04-27T04:27:06.193Z,98457.78
2023-04-27T04:29:39.865Z,98444.47
2023-04-27T04:32:17.980Z,98467.53
2023-04-27T04:34:53.072Z,98448.31
2023-04-27T04:37:27.703Z,98462.81
2023-04-27T04:40:00.174Z,98447.66
2023-04-27T04:42:37.630Z,98440.47
2023-04-27T04:45:10.874Z,98442.53
2023-04-27T04:48:03.127Z,98430.75
2023-04-27T04:50:35.060Z,98427.44
2023-04-27T04:53:08.126Z,98431.63
2023-04-27T04:55:40.990Z,98438.34
2023-04-27T04:58:15.996Z,98450.13
2023-04-27T05:00:48.285Z,98449.47
2023-04-27T05:03:21.730Z,98445.47
2023-04-27T05:05:53.794Z,98437.50
2023-04-27T05:08:27.501Z,98438.84
2023-04-27T05:10:59.815Z,98453.97
2023-04-27T05:13:32.732Z,98438.69
2023-04-27T05:16:08.466Z,98461.69
2023-04-27T05:18:42.159Z,98462.31
2023-04-27T05:21:20.683Z,98468.31
2023-04-27T05:23:53.481Z,98457.84
2023-04-27T05:26:25.379Z,98452.50
2023-04-27T05:28:58.112Z,98472.19
2023-04-27T05:31:30.102Z,98474.91
2023-04-27T05:34:03.139Z,98485.66
2023-04-27T05:36:36.001Z,98498.91
2023-04-27T05:39:10.464Z,98493.00
2023-04-27T05:41:42.439Z,98484.50
2023-04-27T05:44:16.216Z,98487.94
2023-04-27T05:46:48.082Z,98482.56
2023-04-27T05:49:21.094Z,98487.19
2023-04-27T05:51:53.573Z,98492.47
2023-04-27T05:54:28.193Z,98510.34
2023-04-27T05:57:00.146Z,98509.00
2023-04-27T06:02:26.777Z,98514.97
2023-04-27T06:04:59.653Z,98514.94
2023-04-27T06:07:34.683Z,98516.34
2023-04-27T06:10:08.245Z,98524.38
2023-04-27T06:12:40.816Z,98529.75
2023-04-27T06:15:13.805Z,98517.47
2023-04-27T06:17:46.959Z,98528.66
2023-04-27T06:20:19.430Z,98538.50
2023-04-27T06:22:53.920Z,98541.66
2023-04-27T06:25:29.372Z,98543.84
2023-04-27T06:30:56.025Z,98539.31
2023-04-27T06:33:28.786Z,98535.81
2023-04-27T06:36:02.720Z,98524.66
2023-04-27T06:38:34.695Z,98519.97
2023-04-27T06:41:08.518Z,98511.91
2023-04-27T06:43:40.482Z,98531.56
2023-04-27T06:46:15.354Z,98536.38
2023-04-27T06:48:48.845Z,98531.19
2023-04-27T06:51:21.272Z,98534.31
2023-04-27T06:53:56.663Z,98528.28
2023-04-27T06:56:29.004Z,98535.53
2023-04-27T06:59:03.571Z,98529.63
2023-04-27T07:01:36.367Z,98529.03
2023-04-27T07:04:10.523Z,98532.00
2023-04-27T07:06:45.533Z,98522.88
2023-04-27T07:09:26.888Z,98538.19
2023-04-27T07:12:02.995Z,98512.94
2023-04-27T07:14:55.055Z,98522.19
2023-04-27T07:17:27.038Z,98519.56
2023-04-27T07:20:02.347Z,98523.97
2023-04-27T07:22:34.679Z,98494.50
2023-04-27T07:25:09.864Z,98506.47
2023-04-27T07:27:41.772Z,98504.22
2023-04-27T07:30:16.796Z,98509.88
2023-04-27T07:32:54.270Z,98496.97
2023-04-27T07:35:27.839Z,98513.03
2023-04-27T07:38:02.696Z,98509.00
2023-04-27T07:40:36.984Z,98486.81
2023-04-27T07:43:09.498Z,98486.72
2023-04-27T07:45:43.785Z,98496.56
2023-04-27T07:48:16.171Z,98492.47
2023-04-27T07:50:49.240Z,98489.56
2023-04-27T07:53:21.390Z,98491.53
2023-04-27T07:55:54.376Z,98495.31
2023-04-27T08:01:21.605Z,98487.47
2023-04-27T08:03:56.683Z,98495.81
2023-04-27T08:06:29.872Z,98504.00
2023-04-27T08:09:05.038Z,98499.44
2023-04-27T08:11:37.936Z,98484.19
2023-04-27T08:14:13.571Z,98500.84
2023-04-27T08:16:46.593Z,98502.81
2023-04-27T08:19:18.792Z,98510.00
2023-04-27T08:21:52.472Z,98509.06
2023-04-27T08:24:24.941Z,98496.50
2023-04-27T08:26:58.365Z,98494.47
2023-04-27T08:29:30.642Z,98495.19
2023-04-27T08:32:25.343Z,98490.22
2023-04-27T08:34:57.320Z,98482.28
2023-04-27T08:37:31.414Z,98470.81
2023-04-27T08:40:07.451Z,98476.38
2023-04-27T08:42:43.425Z,98480.47
2023-04-27T08:45:15.750Z,98483.47
2023-04-27T08:47:52.886Z,98475.94
2023-04-27T08:50:25.713Z,98481.84
2023-04-27T08:53:24.297Z,98481.25
2023-04-27T08:55:57.768Z,98483.41
2023-04-27T08:58:38.694Z,98484.88
2023-04-27T09:01:10.803Z,98482.63
2023-04-27T09:03:47.260Z,98488.38
2023-04-27T09:06:31.816Z,98494.69
2023-04-27T09:09:26.550Z,98484.22
2023-04-27T09:11:58.713Z,98479.56
2023-04-27T09:14:35.962Z,98489.88
2023-04-27T09:17:07.963Z,98476.72
2023-04-27T09:20:13.911Z,98493.53
2023-04-27T09:22:48.881Z,98497.63
2023-04-27T09:28:51.863Z,98494.56
2023-04-27T09:31:37.505Z,98486.53
2023-04-27T09:34:11.972Z,98482.78
2023-04-27T09:37:06.050Z,98488.69
2023-04-27T09:39:39.422Z,98490.38
2023-04-27T09:42:13.069Z,98478.94
2023-04-27T09:44:46.326Z,98474.72
2023-04-27T09:47:18.744Z,98452.44
2023-04-27T09:49:52.514Z,98477.84
2023-04-27T09:52:42.857Z,98474.47
2023-04-27T09:55:33.571Z,98477.94
2023-04-27T09:58:37.686Z,98476.09
2023-04-27T10:01:27.398Z,98473.63
2023-04-27T10:04:47.015Z,98468.31
2023-04-27T10:07:19.549Z,98468.56
2023-04-27T10:09:52.810Z,98450.78
2023-04-27T10:12:34.607Z,98456.50
2023-04-27T10:15:18.093Z,98459.66
2023-04-27T10:17:58.734Z,98473.59
2023-04-27T10:20:33.391Z,98463.00
2023-04-27T10:23:06.341Z,98462.88
2023-04-27T10:25:42.100Z,98470.75
2023-04-27T10:28:23.472Z,98471.91
2023-04-27T10:30:58.217Z,98460.28
2023-04-27T10:33:30.303Z,98471.44
2023-04-27T10:36:05.108Z,98471.41
2023-04-27T10:38:42.450Z,98466.91
2023-04-27T10:41:15.095Z,98466.19
2023-04-27T10:43:48.944Z,98459.44
2023-04-27T10:46:21.335Z,98471.16
2023-04-27T10:48:54.171Z,98452.84
2023-04-27T10:51:27.104Z,98451.38
2023-04-27T10:54:02.849Z,98456.38
2023-04-27T10:59:28.161Z,98444.56
2023-04-27T11:02:02.570Z,98442.81
2023-04-27T11:04:40.289Z,98456.63
2023-04-27T11:07:28.078Z,98448.47
2023-04-27T11:10:00.184Z,98439.88
2023-04-27T11:12:33.405Z,98443.31
2023-04-27T11:15:23.973Z,98434.03
2023-04-27T11:18:06.372Z,98422.72
2023-04-27T11:20:38.778Z,98423.88
2023-04-27T11:23:11.212Z,98418.72
2023-04-27T11:25:45.480Z,98431.41
2023-04-27T11:28:21.932Z,98410.97
2023-04-27T11:31:01.780Z,98417.84
2023-04-27T11:33:35.823Z,98407.97
2023-04-27T11:36:23.907Z,98412.03
2023-04-27T11:39:00.050Z,98418.09
2023-04-27T11:41:37.946Z,98427.41
2023-04-27T11:44:11.305Z,98394.72
2023-04-27T11:46:48.860Z,98408.41
2023-04-27T11:49:20.907Z,98395.59
2023-04-27T11:51:55.503Z,98418.69
2023-04-27T11:54:29.760Z,98405.34
2023-04-27T11:57:07.016Z,98416.59
2023-04-27T11:59:38.981Z,98402.47
2023-04-27T12:02:33.580Z,98407.97
2023-04-27T12:05:07.498Z,98400.81
2023-04-27T12:07:41.780Z,98395.09
2023-04-27T12:10:14.370Z,98408.31
2023-04-27T12:12:50.254Z,98397.25
2023-04-27T12:15:22.596Z,98405.63
2023-04-27T12:17:56.681Z,98403.81
2023-04-27T12:20:29.441Z,98400.34
2023-04-27T12:23:02.420Z,98398.41
2023-04-27T12:25:37.663Z,98406.00
2023-04-27T12:28:10.404Z,98399.25
2023-04-27T12:33:37.232Z,98399.19
2023-04-27T12:36:11.195Z,98394.59
2023-04-27T12:38:43.815Z,98401.69
2023-04-27T12:41:16.525Z,98393.69
2023-04-27T12:43:49.405Z,98383.84
2023-04-27T12:46:21.966Z,98385.75
2023-04-27T12:48:56.971Z,98387.53
2023-04-27T12:51:53.284Z,98379.16
2023-04-27T12:54:26.250Z,98383.66
2023-04-27T12:56:58.324Z,98373.00
2023-04-27T12:59:31.659Z,98354.06
2023-04-27T13:02:07.870Z,98361.31
2023-04-27T13:04:41.489Z,98341.91
2023-04-27T13:07:17.844Z,98360.66
2023-04-27T13:09:50.161Z,98368.53
2023-04-27T13:12:25.069Z,98357.06
2023-04-27T13:14:57.328Z,98363.22
2023-04-27T13:17:53.301Z,98369.47
2023-04-27T13:23:18.875Z,98360.44
2023-04-27T13:25:51.758Z,98350.16
2023-04-27T13:28:24.149Z,98378.94
2023-04-27T13:30:57.382Z,98379.00
2023-04-27T13:33:32.295Z,98376.16
2023-04-27T13:36:06.562Z,98370.72
2023-04-27T13:38:39.383Z,98345.41
2023-04-27T13:41:12.424Z,98334.63
2023-04-27T13:43:47.743Z,98344.25
2023-04-27T13:46:20.511Z,98351.16
2023-04-27T13:48:53.775Z,98341.97
2023-04-27T13:51:26.687Z,98331.84
2023-04-27T13:53:59.818Z,98350.16
2023-04-27T13:56:32.204Z,98354.97
2023-04-27T13:59:05.659Z,98354.88
2023-04-27T14:01:39.445Z,98344.53
2023-04-27T14:04:11.923Z,98343.97
2023-04-27T14:06:44.127Z,98332.28
2023-04-27T14:09:17.150Z,98335.53
2023-04-27T14:11:56.270Z,98333.56
2023-04-27T14:14:30.372Z,98331.25
2023-04-27T14:17:02.680Z,98338.78
2023-04-27T14:19:38.980Z,98327.00
2023-04-27T14:22:11.427Z,98330.84
2023-04-27T14:24:43.954Z,98346.19
2023-04-27T14:27:17.072Z,98341.28
2023-04-27T14:29:49.567Z,98334.59
2023-04-27T14:32:22.554Z,98330.88
2023-04-27T14:34:55.011Z,98332.94
2023-04-27T14:37:27.366Z,98330.16
2023-04-27T14:40:01.290Z,98316.59
2023-04-27T14:42:33.246Z,98331.91
2023-04-27T14:45:07.073Z,98328.88
2023-04-27T14:47:39.523Z,98331.16
2023-04-27T14:50:12.074Z,98335.06
2023-04-27T14:52:44.954Z,98317.38
2023-04-27T14:55:18.425Z,98334.53
2023-04-27T14:57:53.284Z,98338.75
2023-04-27T15:00:26.228Z,98334.25
2023-04-27T15:03:08.333Z,98333.16
2023-04-27T15:05:41.751Z,98318.94
2023-04-27T15:08:14.122Z,98320.28
2023-04-27T15:10:46.114Z,98317.53
2023-04-27T15:13:18.462Z,98325.34
2023-04-27T15:15:59.460Z,98318.72
2023-04-27T15:18:32.455Z,98305.22
2023-04-27T15:21:04.565Z,98299.22
2023-04-27T15:23:38.638Z,98304.75
2023-04-27T15:26:11.044Z,98307.34
2023-04-27T15:28:44.527Z,98300.50
2023-04-27T15:31:16.584Z,98280.72
2023-04-27T15:33:49.438Z,98267.53
2023-04-27T15:36:22.956Z,98289.59
2023-04-27T15:38:55.412Z,98290.44
2023-04-27T15:41:27.632Z,98289.69
2023-04-27T15:44:00.875Z,98303.19
2023-04-27T15:46:32.984Z,98289.13
2023-04-27T15:49:06.542Z,98291.44
2023-04-27T15:51:39.536Z,98299.41
2023-04-27T15:54:12.290Z,98276.75
2023-04-27T15:56:45.552Z,98280.63
2023-04-27T15:59:18.148Z,98274.81
2023-04-27T16:01:50.952Z,98272.72
2023-04-27T16:04:23.225Z,98275.09
2023-04-27T16:06:55.655Z,98263.38
2023-04-27T16:09:28.204Z,98270.47
2023-04-27T16:12:01.910Z,98266.09
2023-04-27T16:14:34.207Z,98263.44
2023-04-27T16:17:07.221Z,98262.69
2023-04-27T16:19:39.544Z,98251.84
2023-04-27T16:22:11.778Z,98251.97
2023-04-27T16:24:45.111Z,98255.59
2023-04-27T16:27:18.083Z,98247.81
2023-04-27T16:32:43.491Z,98249.84
2023-04-27T16:35:16.698Z,98252.69
2023-04-27T16:37:50.186Z,98241.53
2023-04-27T16:40:22.992Z,98248.38
2023-04-27T16:42:54.889Z,98232.00
2023-04-27T16:45:29.430Z,98242.44
2023-04-27T16:48:03.424Z,98252.63
2023-04-27T16:50:36.463Z,98246.41
2023-04-27T16:53:13.492Z,98256.91
2023-04-27T16:55:46.434Z,98250.06
2023-04-27T16:58:18.888Z,98254.09
2023-04-27T17:00:50.920Z,98235.03
2023-04-27T17:03:24.194Z,98253.34
2023-04-27T17:05:57.059Z,98254.00
2023-04-27T17:08:29.073Z,98256.94
2023-04-27T17:11:02.459Z,98258.59
2023-04-27T17:13:34.362Z,98274.44
2023-04-27T17:16:13.712Z,98253.97
2023-04-27T17:18:49.064Z,98257.03
2023-04-27T17:21:23.137Z,98248.06
2023-04-27T17:23:57.812Z,98263.91
2023-04-27T17:26:30.723Z,98260.56
2023-04-27T17:29:02.610Z,98256.25
2023-04-27T17:31:35.745Z,98245.03
2023-04-27T17:34:07.684Z,98249.66
2023-04-27T17:36:41.110Z,98274.34
2023-04-27T17:39:14.704Z,98278.63
2023-04-27T17:41:47.358Z,98268.88
2023-04-27T17:44:19.739Z,98284.69
2023-04-27T17:46:52.230Z,98269.16
2023-04-27T17:49:25.597Z,98276.34
2023-04-27T17:51:57.522Z,98281.31
2023-04-27T17:54:30.379Z,98273.25
2023-04-27T17:57:04.202Z,98278.31
2023-04-27T17:59:37.265Z,98277.50
2023-04-27T18:02:12.177Z,98279.28
2023-04-27T18:04:44.318Z,98242.72
2023-04-27T18:07:18.901Z,98258.59
2023-04-27T18:09:51.457Z,98258.00
2023-04-27T18:12:24.205Z,98235.88
2023-04-27T18:14:56.202Z,98238.63
2023-04-27T18:17:28.862Z,98223.84
2023-04-27T18:20:09.614Z,98235.16
2023-04-27T18:22:42.658Z,98248.50
2023-04-27T18:25:14.613Z,98246.22
2023-04-27T18:27:50.079Z,98246.16
2023-04-27T18:30:22.916Z,98252.44
2023-04-27T18:32:55.971Z,98251.41
2023-04-27T18:35:27.938Z,98250.63
2023-04-27T18:38:00.651Z,98246.81
2023-04-27T18:40:36.018Z,98255.69
2023-04-27T18:43:08.913Z,98263.28
2023-04-27T18:45:41.260Z,98259.66
2023-04-27T18:48:13.865Z,98268.59
2023-04-27T18:50:46.928Z,98257.88
2023-04-27T18:53:19.545Z,98260.56
2023-04-27T18:55:51.499Z,98268.56
2023-04-27T18:58:24.379Z,98262.94
2023-04-27T19:00:56.797Z,98274.59
2023-04-27T19:03:29.536Z,98256.44
2023-04-27T19:06:01.572Z,98269.63
2023-04-27T19:08:34.365Z,98267.50
2023-04-27T19:11:06.284Z,98271.53
2023-04-27T19:13:43.271Z,98277.28
2023-04-27T19:16:15.473Z,98274.03
2023-04-27T19:18:48.045Z,98273.50
2023-04-27T19:21:20.016Z,98258.50
2023-04-27T19:23:53.003Z,98281.06
2023-04-27T19:26:25.424Z,98262.72
2023-04-27T19:28:57.737Z,98280.72
2023-04-27T19:31:30.326Z,98282.63
2023-04-27T19:34:04.453Z,98272.75
2023-04-27T19:36:37.203Z,98259.66
2023-04-27T19:39:09.205Z,98286.09
2023-04-27T19:41:42.238Z,98288.75
2023-04-27T19:44:14.226Z,98283.53
2023-04-27T19:46:47.074Z,98279.59
2023-04-27T19:49:19.041Z,98255.81
2023-04-27T19:51:51.561Z,98273.03
2023-04-27T19:54:23.408Z,98265.81
2023-04-27T19:56:56.831Z,98284.94
2023-04-27T19:59:28.816Z,98273.22
2023-04-27T20:02:01.699Z,98284.06
2023-04-27T20:04:34.581Z,98277.66
2023-04-27T20:07:07.973Z,98291.91
2023-04-27T20:09:43.685Z,98264.38
2023-04-27T20:12:40.226Z,98263.78
2023-04-27T20:15:12.005Z,98252.63
2023-04-27T20:17:46.557Z,98257.94
2023-04-27T20:20:19.275Z,98285.97
2023-04-27T20:22:52.397Z,98282.97
2023-04-27T20:25:26.211Z,98269.28
2023-04-27T20:27:58.464Z,98267.59
2023-04-27T20:30:30.501Z,98256.53
2023-04-27T20:33:04.193Z,98284.06
2023-04-27T20:35:36.511Z,98249.13
2023-04-27T20:38:08.614Z,98273.22
2023-04-27T20:40:42.350Z,98240.66
2023-04-27T20:43:14.651Z,98238.88
2023-04-27T20:45:47.201Z,98259.69
2023-04-27T20:48:19.286Z,98249.25
2023-04-27T20:50:52.233Z,98263.72
2023-04-27T20:53:25.882Z,98266.09
2023-04-27T20:55:58.427Z,98246.13
2023-04-27T20:58:30.373Z,98259.84
2023-04-27T21:01:03.436Z,98268.06
2023-04-27T21:03:35.743Z,98252.06
2023-04-27T21:06:08.584Z,98251.91
2023-04-27T21:08:40.522Z,98249.38
2023-04-27T21:11:14.146Z,98247.59
2023-04-27T21:13:46.948Z,98229.22
2023-04-27T21:16:19.530Z,98228.78
2023-04-27T21:18:51.452Z,98216.97
2023-04-27T21:21:24.716Z,98233.34
2023-04-27T21:24:06.572Z,98242.19
2023-04-27T21:26:40.522Z,98244.72
2023-04-27T21:29:12.403Z,98233.25
2023-04-27T21:31:44.945Z,98208.69
2023-04-27T21:34:17.300Z,98217.97
2023-04-27T21:36:50.080Z,98227.06
2023-04-27T21:39:22.053Z,98221.94
2023-04-27T21:41:54.555Z,98209.44
2023-04-27T21:44:26.481Z,98196.84
2023-04-27T21:46:58.996Z,98213.44
2023-04-27T21:49:30.869Z,98216.72
2023-04-27T21:52:03.433Z,98212.53
2023-04-27T21:54:35.513Z,98198.19
2023-04-27T21:57:08.088Z,98187.00
2023-04-27T21:59:40.510Z,98204.00
2023-04-27T22:02:12.411Z,98209.59
2023-04-27T22:04:45.644Z,98207.00
2023-04-27T22:07:18.696Z,98208.16
2023-04-27T22:09:51.304Z,98185.25
2023-04-27T22:12:23.605Z,98202.28
2023-04-27T22:14:56.259Z,98178.81
2023-04-27T22:17:28.556Z,98208.47
2023-04-27T22:20:01.566Z,98192.75
2023-04-27T22:22:33.873Z,98205.31
2023-04-27T22:25:08.217Z,98209.91
2023-04-27T22:27:44.867Z,98185.03
2023-04-27T22:30:17.912Z,98195.53
2023-04-27T22:32:50.282Z,98199.69
2023-04-27T22:35:27.077Z,98205.44
2023-04-27T22:38:00.332Z,98184.34
2023-04-27T22:40:32.853Z,98183.03
2023-04-27T22:43:04.938Z,98185.66
2023-04-27T22:45:38.812Z,98192.88
2023-04-27T22:48:11.113Z,98177.34
2023-04-27T22:50:43.690Z,98202.47
2023-04-27T22:53:15.752Z,98205.75
2023-04-27T22:55:48.863Z,98208.22
2023-04-27T22:58:21.116Z,98214.91
2023-04-27T23:00:53.829Z,98205.00
2023-04-27T23:03:25.846Z,98176.03
2023-04-27T23:06:01.063Z,98186.47
2023-04-27T23:08:33.314Z,98208.00
2023-04-27T23:11:05.883Z,98192.41
2023-04-27T23:13:37.977Z,98188.38
2023-04-27T23:16:10.558Z,98183.63
2023-04-27T23:18:42.538Z,98163.91
2023-04-27T23:21:15.049Z,98190.94
2023-04-27T23:23:46.979Z,98185.19
2023-04-27T23:26:19.566Z,98181.88
2023-04-27T23:28:52.322Z,98193.53
2023-04-27T23:31:24.346Z,98175.16
2023-04-27T23:33:57.125Z,98188.78
2023-04-27T23:36:29.418Z,98185.56
2023-04-27T23:39:02.364Z,98184.91
2023-04-27T23:41:34.764Z,98194.97
2023-04-27T23:44:07.355Z,98178.47
2023-04-27T23:46:39.639Z,98196.94
2023-04-27T23:49:12.227Z,98171.97
2023-04-27T23:51:44.573Z,98201.38
2023-04-27T23:54:17.287Z,98181.59
2023-04-27T23:56:52.476Z,98180.78
2023-04-27T23:59:25.044Z,98180.06
